Time;durP1;ratioP1;P1;durP2;ratioP2;P2;SDS_P1;SDS_P2;PMS_P1;PMS_P2;Temp;Humidity;BMP_temperature;BMP_pressure;BME280_temperature;BME280_humidity;BME280_pressure;Samples;Min_cycle;Max_cycle;Signal;HPM_P1;HPM_P2
2023/12/31 00:01:59;;;;;;;;;;;;;;;16.13;47.65;101086.16;5076235;28;1906;-55
2023/12/31 00:04:24;;;;;;;;;;;;;;;15.67;47.34;101086.34;5069626;28;1000;-54
2023/12/31 00:06:50;;;;;;;;;;;;;;;16.88;47.45;101083.84;5076298;28;1126;-53
2023/12/31 00:09:16;;;;;;;;;;;;;;;16.16;47.69;101081.47;5076731;28;1102;-54
2023/12/31 00:11:41;;;;;;;;;;;;;;;15.72;46.92;101079.88;5066803;28;1095;-55
2023/12/31 00:14:07;;;;;;;;;;;;;;;15.87;48.24;101073.59;5072153;28;1095;-53
2023/12/31 00:16:33;;;;;;;;;;;;;;;17.12;46.50;101073.34;5075876;28;848;-52
2023/12/31 00:18:59;;;;;;;;;;;;;;;16.01;47.47;101071.88;5076138;28;1035;-52
2023/12/31 00:21:24;;;;;;;;;;;;;;;15.72;46.83;101082.53;5058569;28;1995;-54
2023/12/31 00:23:50;;;;;;;;;;;;;;;17.13;47.09;101082.19;5075585;28;1047;-54
2023/12/31 00:26:15;;;;;;;;;;;;;;;16.09;47.71;101090.81;5076577;28;1047;-56
2023/12/31 00:28:42;;;;;;;;;;;;;;;15.80;46.96;101082.91;5050495;28;1408;-54
2023/12/31 00:31:08;;;;;;;;;;;;;;;15.58;46.70;101086.09;5058230;28;1195;-54
2023/12/31 00:33:33;;;;;;;;;;;;;;;15.45;45.76;101086.84;5076067;28;1158;-56
2023/12/31 00:36:00;;;;;;;;;;;;;;;16.37;47.45;101093.44;5076277;28;1027;-54
2023/12/31 00:38:25;;;;;;;;;;;;;;;16.31;47.22;101091.19;5076396;28;1143;-54
2023/12/31 00:40:51;;;;;;;;;;;;;;;15.64;47.34;101091.00;5078338;28;1905;-53
2023/12/31 00:43:16;;;;;;;;;;;;;;;17.00;46.97;101098.06;5062028;28;1480;-55
2023/12/31 00:45:42;;;;;;;;;;;;;;;16.20;47.33;101095.41;5079856;28;1051;-55
2023/12/31 00:48:10;;;;;;;;;;;;;;;15.79;47.31;101094.47;5080025;28;1206;-54
2023/12/31 00:50:37;;;;;;;;;;;;;;;15.54;46.55;101096.03;5080194;28;1051;-54
2023/12/31 00:53:02;;;;;;;;;;;;;;;17.17;46.53;101096.94;5070961;28;1131;-50
2023/12/31 00:55:28;;;;;;;;;;;;;;;16.23;47.30;101092.53;5080064;28;1193;-52
2023/12/31 00:57:53;;;;;;;;;;;;;;;15.82;46.83;101093.41;5079519;28;1162;-53
2023/12/31 01:00:19;;;;;;;;;;;;;;;15.55;46.54;101095.06;5079543;28;1051;-54
2023/12/31 01:02:45;;;;;;;;;;;;;;;16.37;47.60;101098.75;5080337;28;1909;-56
2023/12/31 01:05:11;;;;;;;;;;;;;;;16.13;47.38;101102.91;5077158;28;863;-54
2023/12/31 01:07:36;;;;;;;;;;;;;;;15.66;47.39;101095.25;5061761;28;1163;-53
2023/12/31 01:10:03;;;;;;;;;;;;;;;15.52;46.59;101100.56;5079891;28;1067;-55
2023/12/31 01:12:28;;;;;;;;;;;;;;;16.73;47.16;101101.69;5079563;28;1227;-54
2023/12/31 01:14:54;;;;;;;;;;;;;;;16.29;47.54;101096.59;5079506;28;1123;-55
2023/12/31 01:17:19;;;;;;;;;;;;;;;15.74;47.57;101089.47;5070480;28;1149;-56
2023/12/31 01:19:45;;;;;;;;;;;;;;;17.34;46.36;101095.75;5079516;28;1071;-55
2023/12/31 01:22:11;;;;;;;;;;;;;;;16.15;47.62;101092.19;5061291;28;1974;-54
2023/12/31 01:24:36;;;;;;;;;;;;;;;15.71;47.21;101091.47;5079418;28;1055;-51
2023/12/31 01:27:02;;;;;;;;;;;;;;;16.96;47.01;101102.78;5079432;28;1140;-54
2023/12/31 01:29:27;;;;;;;;;;;;;;;16.68;46.59;101099.38;5076517;28;849;-54
2023/12/31 01:31:53;;;;;;;;;;;;;;;15.96;46.89;101100.50;5078856;28;1300;-54
2023/12/31 01:34:18;;;;;;;;;;;;;;;15.69;46.96;101101.31;5073145;28;995;-55
2023/12/31 01:36:44;;;;;;;;;;;;;;;17.01;46.96;101098.00;5074058;28;1051;-54
2023/12/31 01:39:10;;;;;;;;;;;;;;;16.21;47.59;101104.22;5060125;28;1222;-52
2023/12/31 01:41:36;;;;;;;;;;;;;;;15.86;47.21;101100.25;5048662;28;1957;-53
2023/12/31 01:44:02;;;;;;;;;;;;;;;16.70;47.62;101104.56;5077511;28;1094;-54
2023/12/31 01:46:28;;;;;;;;;;;;;;;16.68;46.97;101098.50;5059937;28;1357;-54
2023/12/31 01:48:54;;;;;;;;;;;;;;;16.00;47.04;101102.00;5059434;28;1052;-54
2023/12/31 01:51:20;;;;;;;;;;;;;;;15.70;46.89;101093.25;5059270;28;1437;-55
2023/12/31 01:53:46;;;;;;;;;;;;;;;17.50;46.24;101098.16;5043357;28;1205;-55
2023/12/31 01:56:11;;;;;;;;;;;;;;;16.44;47.47;101088.56;5077511;28;1229;-53
2023/12/31 01:58:37;;;;;;;;;;;;;;;15.89;47.14;101094.72;5077610;28;1074;-51
2023/12/31 02:01:03;;;;;;;;;;;;;;;16.65;48.02;101091.56;5059317;28;1965;-53
2023/12/31 02:03:29;;;;;;;;;;;;;;;17.03;46.62;101087.25;5059068;28;1123;-52
2023/12/31 02:05:55;;;;;;;;;;;;;;;16.18;47.15;101084.06;5047584;28;1107;-53
2023/12/31 02:08:20;;;;;;;;;;;;;;;15.96;46.62;101093.38;5077701;28;1078;-53
2023/12/31 02:10:46;;;;;;;;;;;;;;;17.18;47.08;101084.50;5077635;28;1178;-54
2023/12/31 02:13:11;;;;;;;;;;;;;;;16.45;47.47;101077.00;5077056;28;1110;-51
2023/12/31 02:15:37;;;;;;;;;;;;;;;15.87;47.38;101084.22;5076770;28;999;-55
2023/12/31 02:18:03;;;;;;;;;;;;;;;15.76;46.62;101076.97;5071465;28;915;-54
2023/12/31 02:20:29;;;;;;;;;;;;;;;16.91;46.82;101080.13;5077240;28;1131;-54
2023/12/31 02:22:55;;;;;;;;;;;;;;;15.99;47.42;101084.41;5059025;28;1992;-54
2023/12/31 02:25:22;;;;;;;;;;;;;;;16.18;48.10;101080.53;5059336;28;1135;-53
2023/12/31 02:27:48;;;;;;;;;;;;;;;16.58;47.30;101083.16;5059129;28;1106;-53
2023/12/31 02:30:14;;;;;;;;;;;;;;;15.90;47.20;101080.50;5058953;28;1372;-55
2023/12/31 02:32:40;;;;;;;;;;;;;;;15.81;46.24;101081.09;5031101;28;1321015;-51
2023/12/31 02:35:05;;;;;;;;;;;;;;;15.77;46.88;101083.97;5077397;28;1079;-54
2023/12/31 02:37:31;;;;;;;;;;;;;;;16.80;46.73;101087.03;5059709;28;1199;-55
2023/12/31 02:39:56;;;;;;;;;;;;;;;15.94;47.48;101089.13;5077623;28;1149;-54
2023/12/31 02:42:22;;;;;;;;;;;;;;;15.73;46.53;101090.41;5052876;28;2028;-53
2023/12/31 02:44:48;;;;;;;;;;;;;;;15.90;47.39;101088.47;5059428;28;1213;-53
2023/12/31 02:47:13;;;;;;;;;;;;;;;16.80;46.87;101089.69;5059304;28;1206;-57
2023/12/31 02:49:39;;;;;;;;;;;;;;;15.85;47.48;101095.91;5063784;28;1110;-56
2023/12/31 02:52:05;;;;;;;;;;;;;;;15.62;46.99;101090.22;5077373;28;1063;-55
2023/12/31 02:54:30;;;;;;;;;;;;;;;17.06;46.84;101096.81;5057938;28;906;-53
2023/12/31 02:56:56;;;;;;;;;;;;;;;16.07;47.10;101099.81;5077054;28;1003;-55
2023/12/31 02:59:21;;;;;;;;;;;;;;;15.69;46.89;101098.66;5077063;28;1004;-58
2023/12/31 03:01:47;;;;;;;;;;;;;;;17.15;46.03;101106.00;5058783;28;1983;-58
2023/12/31 03:04:13;;;;;;;;;;;;;;;16.06;47.06;101114.91;5059102;28;1516;-58
2023/12/31 03:06:39;;;;;;;;;;;;;;;15.68;46.69;101108.44;5068395;28;884;-59
2023/12/31 03:09:06;;;;;;;;;;;;;;;15.50;46.04;101118.38;5075520;28;1023;-57
2023/12/31 03:11:32;;;;;;;;;;;;;;;16.27;47.24;101119.75;5065822;28;1257;-57
2023/12/31 03:13:58;;;;;;;;;;;;;;;16.33;47.38;101121.16;5058943;28;1249;-57
2023/12/31 03:16:27;;;;;;;;;;;;;;;16.64;47.50;101116.44;5076863;28;1146;-57
2023/12/31 03:18:53;;;;;;;;;;;;;;;18.16;44.58;101121.94;5058043;28;868;-57
2023/12/31 03:21:18;;;;;;;;;;;;;;;16.51;47.21;101114.63;5058660;28;1910;-57
2023/12/31 03:23:44;;;;;;;;;;;;;;;16.01;46.98;101117.88;5077103;28;1048;-58
2023/12/31 03:26:09;;;;;;;;;;;;;;;15.86;46.34;101116.16;5058809;28;1040;-58
2023/12/31 03:28:36;;;;;;;;;;;;;;;15.63;45.93;101123.78;5076689;28;1091;-56
2023/12/31 03:31:02;;;;;;;;;;;;;;;16.70;47.13;101131.97;5068167;28;862;-57
2023/12/31 03:33:28;;;;;;;;;;;;;;;16.28;47.34;101134.75;5058358;28;1371;-56
2023/12/31 03:35:54;;;;;;;;;;;;;;;15.79;46.73;101128.97;5076624;28;1055;-55
2023/12/31 03:38:20;;;;;;;;;;;;;;;17.09;46.49;101144.47;5076520;28;1024;-56
2023/12/31 03:40:45;;;;;;;;;;;;;;;16.08;46.95;101144.00;5059050;28;1067;-57
2023/12/31 03:43:11;;;;;;;;;;;;;;;15.79;46.50;101148.38;5070750;28;907;-56
2023/12/31 03:45:36;;;;;;;;;;;;;;;16.76;47.27;101150.16;5065551;28;1056;-56
2023/12/31 03:48:02;;;;;;;;;;;;;;;16.59;46.93;101147.78;5076537;28;1238;-56
2023/12/31 03:50:28;;;;;;;;;;;;;;;15.94;47.10;101137.75;5075931;28;1078;-57
2023/12/31 03:52:54;;;;;;;;;;;;;;;17.18;46.59;101146.50;5076615;28;1223;-57
2023/12/31 03:55:20;;;;;;;;;;;;;;;16.14;47.32;101152.41;5048493;28;1143;-57
2023/12/31 03:57:45;;;;;;;;;;;;;;;15.75;46.70;101160.13;5073858;28;1146;-56
2023/12/31 04:00:11;;;;;;;;;;;;;;;17.59;45.90;101155.19;5065609;28;1044;-57
2023/12/31 04:02:37;;;;;;;;;;;;;;;16.35;47.40;101159.91;5058329;28;1974;-57
2023/12/31 04:05:02;;;;;;;;;;;;;;;15.79;47.10;101161.66;5075685;28;1032;-56
2023/12/31 04:07:28;;;;;;;;;;;;;;;15.68;46.45;101161.47;5053840;28;1004;-56
2023/12/31 04:09:54;;;;;;;;;;;;;;;15.53;46.15;101177.38;5076624;28;1079;-57
2023/12/31 04:12:20;;;;;;;;;;;;;;;16.21;47.41;101171.44;5058239;28;1094;-56
2023/12/31 04:14:46;;;;;;;;;;;;;;;16.68;47.01;101171.09;5075913;28;1202;-56
2023/12/31 04:17:11;;;;;;;;;;;;;;;15.88;47.24;101177.94;5057749;28;1171;-57
2023/12/31 04:19:37;;;;;;;;;;;;;;;16.81;47.35;101180.88;5065235;28;862;-51
2023/12/31 04:22:04;;;;;;;;;;;;;;;16.29;47.51;101176.25;5075868;28;1974;-54
2023/12/31 04:24:29;;;;;;;;;;;;;;;15.84;47.23;101176.41;5058297;28;1143;-55
2023/12/31 04:26:57;;;;;;;;;;;;;;;15.69;46.41;101187.03;5057754;28;1215;-55
2023/12/31 04:29:24;;;;;;;;;;;;;;;17.17;46.15;101179.34;5075016;28;1104;-57
2023/12/31 04:31:49;;;;;;;;;;;;;;;15.97;47.14;101182.66;5054009;28;1183;-53
2023/12/31 04:34:15;;;;;;;;;;;;;;;15.72;46.78;101178.88;5075781;28;1048;-49
2023/12/31 04:36:42;;;;;;;;;;;;;;;16.77;47.17;101190.84;5075529;28;1047;-54
2023/12/31 04:39:08;;;;;;;;;;;;;;;16.74;46.84;101191.91;5075820;28;1063;-47
2023/12/31 04:41:33;;;;;;;;;;;;;;;15.97;47.07;101181.78;5067852;28;2091;-52
2023/12/31 04:43:59;;;;;;;;;;;;;;;15.72;46.59;101181.53;5063935;28;2111;-53
2023/12/31 04:46:25;;;;;;;;;;;;;;;15.68;46.17;101182.69;5056911;28;1849;-52
2023/12/31 04:48:51;;;;;;;;;;;;;;;16.77;46.54;101197.03;5057051;28;2270;-52
2023/12/31 04:51:26;;;;;;;;;;;;;;;15.78;47.10;101197.06;5075083;28;1985;-53
2023/12/31 04:53:52;;;;;;;;;;;;;;;15.73;47.54;101195.66;5054621;28;2111;-56
2023/12/31 04:56:18;;;;;;;;;;;;;;;16.52;46.97;101193.34;5071476;28;2198;-57
2023/12/31 04:58:44;;;;;;;;;;;;;;;15.79;46.97;101197.94;5075485;28;1051;-54
2023/12/31 05:01:10;;;;;;;;;;;;;;;15.57;46.42;101198.41;5054349;28;1973;-58
2023/12/31 05:03:35;;;;;;;;;;;;;;;16.63;47.29;101200.59;5046278;28;1199;-58
2023/12/31 05:06:01;;;;;;;;;;;;;;;16.15;47.22;101193.06;5073819;28;1142;-55
2023/12/31 05:08:27;;;;;;;;;;;;;;;15.72;46.71;101188.63;5074667;28;1060;-56
2023/12/31 05:10:54;;;;;;;;;;;;;;;16.65;47.21;101200.47;5074529;28;1107;-57
2023/12/31 05:13:20;;;;;;;;;;;;;;;16.98;46.38;101193.03;5065806;28;1054;-56
2023/12/31 05:15:45;;;;;;;;;;;;;;;16.01;47.08;101184.22;5071752;28;1024;-56
2023/12/31 05:18:11;;;;;;;;;;;;;;;15.65;46.80;101191.69;5074032;28;1103;-58
2023/12/31 05:20:36;;;;;;;;;;;;;;;16.00;47.82;101195.75;5074828;28;1017;-55
2023/12/31 05:23:02;;;;;;;;;;;;;;;17.04;46.28;101207.69;5074931;28;1974;-57
2023/12/31 05:25:27;;;;;;;;;;;;;;;16.12;48.50;101196.78;5061761;28;2442;-57
2023/12/31 05:27:53;;;;;;;;;;;;;;;16.45;47.43;101202.66;5078907;28;1168;-57
2023/12/31 05:30:19;;;;;;;;;;;;;;;16.26;47.57;101201.22;5066368;28;1139;-57
2023/12/31 05:32:45;;;;;;;;;;;;;;;16.23;47.25;101192.59;5078412;28;1103;-55
2023/12/31 05:35:11;;;;;;;;;;;;;;;15.89;48.25;101195.53;5075362;28;1086;-53
2023/12/31 05:37:36;;;;;;;;;;;;;;;15.77;48.60;101192.72;5058469;28;1088;-52
2023/12/31 05:40:04;;;;;;;;;;;;;;;15.60;48.59;101195.59;5074514;28;1196;-52
2023/12/31 05:42:29;;;;;;;;;;;;;;;15.45;48.88;101205.31;5078133;28;1914;-52
2023/12/31 05:44:55;;;;;;;;;;;;;;;15.34;49.17;101206.81;5062234;28;1143;-51
2023/12/31 05:47:20;;;;;;;;;;;;;;;16.34;47.37;101205.16;5067893;28;1111;-52
2023/12/31 05:49:46;;;;;;;;;;;;;;;17.21;45.11;101207.44;5077795;28;1054;-52
2023/12/31 05:52:12;;;;;;;;;;;;;;;16.23;46.88;101208.50;5078024;28;1109;-51
2023/12/31 05:54:39;;;;;;;;;;;;;;;15.88;47.76;101212.44;5076045;28;2470;-53
2023/12/31 05:57:05;;;;;;;;;;;;;;;15.65;48.62;101214.69;5078165;28;1122;-53
2023/12/31 05:59:31;;;;;;;;;;;;;;;15.46;48.78;101207.03;5078060;28;1060;-55
2023/12/31 06:01:56;;;;;;;;;;;;;;;16.72;45.99;101215.06;5078269;28;1973;-49
2023/12/31 06:04:23;;;;;;;;;;;;;;;17.40;44.13;101214.13;5078006;28;1170;-54
2023/12/31 06:06:48;;;;;;;;;;;;;;;16.35;46.47;101217.50;5071357;28;1091;-51
2023/12/31 06:09:14;;;;;;;;;;;;;;;15.97;47.43;101222.44;5074467;28;1202;-52
2023/12/31 06:11:39;;;;;;;;;;;;;;;15.66;48.17;101219.06;5067446;28;1019;-54
2023/12/31 06:14:05;;;;;;;;;;;;;;;16.02;47.44;101223.06;5074344;28;1098;-49
2023/12/31 06:16:31;;;;;;;;;;;;;;;17.42;44.37;101216.69;5077462;28;1090;-53
2023/12/31 06:18:57;;;;;;;;;;;;;;;16.58;45.91;101221.28;5070950;28;1058;-53
2023/12/31 06:21:22;;;;;;;;;;;;;;;15.97;47.40;101211.84;5057551;28;1905;-52
2023/12/31 06:23:48;;;;;;;;;;;;;;;15.69;48.08;101218.88;5074176;28;1136;-50
2023/12/31 06:26:13;;;;;;;;;;;;;;;16.06;47.43;101221.06;5069655;28;2487;-51
2023/12/31 06:28:39;;;;;;;;;;;;;;;17.33;44.37;101227.00;5073800;28;1051;-49
2023/12/31 06:31:04;;;;;;;;;;;;;;;16.45;45.95;101229.22;5060056;28;1063;-52
2023/12/31 06:33:30;;;;;;;;;;;;;;;15.96;47.29;101235.81;5059671;28;1119;-53
2023/12/31 06:35:55;;;;;;;;;;;;;;;16.01;47.36;101225.81;5077000;28;1106;-51
2023/12/31 06:38:21;;;;;;;;;;;;;;;17.36;44.19;101232.13;5075630;28;1074;-50
2023/12/31 06:40:47;;;;;;;;;;;;;;;16.57;45.63;101237.31;5076779;28;1116;-52
2023/12/31 06:43:12;;;;;;;;;;;;;;;16.00;47.04;101237.34;5077093;28;1914;-52
2023/12/31 06:45:38;;;;;;;;;;;;;;;15.79;47.46;101245.69;5076973;28;1367;-52
2023/12/31 06:48:04;;;;;;;;;;;;;;;15.59;48.26;101250.41;5077342;28;1360;-49
2023/12/31 06:50:29;;;;;;;;;;;;;;;16.91;45.24;101252.84;5077154;28;1440;-53
2023/12/31 06:52:55;;;;;;;;;;;;;;;16.86;44.81;101251.38;5066028;28;991;-55
2023/12/31 06:55:21;;;;;;;;;;;;;;;16.19;46.59;101249.47;5064119;28;2434;-52
2023/12/31 06:57:47;;;;;;;;;;;;;;;15.83;47.58;101249.00;5076720;28;1324;-54
2023/12/31 07:00:13;;;;;;;;;;;;;;;16.08;47.09;101253.63;5063217;28;1031;-53
2023/12/31 07:02:38;;;;;;;;;;;;;;;17.45;43.81;101259.88;5063606;28;1906;-54
2023/12/31 07:05:04;;;;;;;;;;;;;;;16.53;45.85;101266.75;5076674;28;1029;-51
2023/12/31 07:07:30;;;;;;;;;;;;;;;16.09;46.65;101262.47;5058740;28;1082;-55
2023/12/31 07:09:55;;;;;;;;;;;;;;;15.79;47.65;101266.91;5063614;28;1123;-54
2023/12/31 07:12:21;;;;;;;;;;;;;;;16.27;46.71;101258.66;5076642;28;1086;-54
2023/12/31 07:14:46;;;;;;;;;;;;;;;17.10;44.45;101266.66;5075962;28;1048;-54
2023/12/31 07:17:12;;;;;;;;;;;;;;;16.36;46.26;101266.97;5076242;28;1100;-51
2023/12/31 07:19:38;;;;;;;;;;;;;;;15.97;47.15;101259.59;5073542;28;1079;-54
2023/12/31 07:22:04;;;;;;;;;;;;;;;15.71;47.87;101272.69;5045835;28;1973;-53
2023/12/31 07:24:32;;;;;;;;;;;;;;;17.10;44.85;101276.44;5056053;28;1802;-53
2023/12/31 07:26:58;;;;;;;;;;;;;;;17.00;44.66;101270.84;5069580;28;1215;-53
2023/12/31 07:29:23;;;;;;;;;;;;;;;16.33;46.36;101281.28;5070094;28;1043;-51
2023/12/31 07:31:49;;;;;;;;;;;;;;;15.95;47.24;101279.22;5059665;28;1122;-53
2023/12/31 07:34:15;;;;;;;;;;;;;;;15.79;47.64;101281.03;5056325;28;1495;-54
2023/12/31 07:36:41;;;;;;;;;;;;;;;16.85;45.39;101283.34;5068695;28;1111;-56
2023/12/31 07:39:06;;;;;;;;;;;;;;;17.01;44.58;101288.50;5076005;28;1106;-56
2023/12/31 07:41:32;;;;;;;;;;;;;;;16.29;46.33;101290.41;5062247;28;1977;-54
2023/12/31 07:43:58;;;;;;;;;;;;;;;15.96;47.19;101297.72;5074634;28;979;-51
2023/12/31 07:46:23;;;;;;;;;;;;;;;15.70;47.61;101297.47;5063296;28;1170;-51
2023/12/31 07:48:51;;;;;;;;;;;;;;;16.86;45.41;101293.88;5066872;28;1210;-54
2023/12/31 07:51:17;;;;;;;;;;;;;;;17.21;44.47;101308.47;5071519;28;1126;-49
2023/12/31 07:53:42;;;;;;;;;;;;;;;16.44;46.26;101316.94;5075153;28;1007;-53
2023/12/31 07:56:08;;;;;;;;;;;;;;;16.11;46.72;101318.97;5068465;28;2631;-50
2023/12/31 07:58:34;;;;;;;;;;;;;;;15.88;47.43;101318.56;5075526;28;1122;-53
2023/12/31 08:01:02;;;;;;;;;;;;;;;16.85;45.40;101312.59;5062512;28;1910;-54
2023/12/31 08:03:30;;;;;;;;;;;;;;;17.26;44.22;101316.16;5076072;28;1122;-54
2023/12/31 08:05:56;;;;;;;;;;;;;;;16.38;45.83;101320.84;5074931;28;1123;-55
2023/12/31 08:08:22;;;;;;;;;;;;;;;16.00;47.03;101322.25;5071952;28;1036;-49
2023/12/31 08:10:48;;;;;;;;;;;;;;;15.80;47.69;101326.97;5075534;28;1080;-52
2023/12/31 08:13:13;;;;;;;;;;;;;;;15.64;48.20;101327.91;5075602;28;1380;-52
2023/12/31 08:15:39;;;;;;;;;;;;;;;17.11;44.62;101326.84;5075729;28;1019;-52
2023/12/31 08:18:05;;;;;;;;;;;;;;;16.81;44.95;101334.97;5075414;28;1412;-54
2023/12/31 08:20:31;;;;;;;;;;;;;;;16.18;46.43;101335.38;5075375;28;988;-54
2023/12/31 08:22:56;;;;;;;;;;;;;;;15.87;47.22;101332.75;5075348;28;1978;-55
2023/12/31 08:25:22;;;;;;;;;;;;;;;15.67;47.54;101335.66;5075725;28;2446;-56
2023/12/31 08:27:47;;;;;;;;;;;;;;;16.80;45.69;101336.78;5075566;28;1238;-57
2023/12/31 08:30:13;;;;;;;;;;;;;;;16.89;44.88;101330.03;5075613;28;1273;-57
2023/12/31 08:32:39;;;;;;;;;;;;;;;16.22;46.71;101331.56;5065730;28;1415;-55
2023/12/31 08:35:05;;;;;;;;;;;;;;;15.94;47.38;101334.09;5075502;28;1344;-56
2023/12/31 08:37:30;;;;;;;;;;;;;;;16.27;46.68;101330.34;5075334;28;1139;-55
2023/12/31 08:39:56;;;;;;;;;;;;;;;17.38;43.80;101333.09;5074539;28;1339;-56
2023/12/31 08:42:21;;;;;;;;;;;;;;;16.48;45.79;101329.09;5075154;28;2056;-55
2023/12/31 08:44:48;;;;;;;;;;;;;;;16.09;46.79;101323.50;5061245;28;1364;-55
2023/12/31 08:47:14;;;;;;;;;;;;;;;15.83;47.32;101328.59;5075172;28;1166;-56
2023/12/31 08:49:40;;;;;;;;;;;;;;;15.73;48.07;101326.47;5075076;28;1379;-53
2023/12/31 08:52:06;;;;;;;;;;;;;;;17.20;44.47;101313.91;5075564;28;1313;-56
2023/12/31 08:54:33;;;;;;;;;;;;;;;16.57;45.70;101312.56;5075332;28;2217;-53
2023/12/31 08:56:59;;;;;;;;;;;;;;;16.09;46.62;101310.25;5072705;28;1424;-56
2023/12/31 08:59:25;;;;;;;;;;;;;;;15.78;47.69;101312.97;5075037;28;1313;-55
2023/12/31 09:01:50;;;;;;;;;;;;;;;15.74;47.76;101314.94;5078635;28;1980;-51
2023/12/31 09:04:16;;;;;;;;;;;;;;;17.30;44.45;101308.81;5077979;28;1036;-51
2023/12/31 09:06:41;;;;;;;;;;;;;;;16.87;44.99;101300.91;5078784;28;1125;-55
2023/12/31 09:09:07;;;;;;;;;;;;;;;16.25;46.59;101294.19;5066253;28;1071;-56
2023/12/31 09:11:32;;;;;;;;;;;;;;;15.93;47.29;101300.56;5078987;28;845;-54
2023/12/31 09:13:59;;;;;;;;;;;;;;;15.78;47.61;101302.34;5077970;28;1218;-57
2023/12/31 09:16:25;;;;;;;;;;;;;;;16.59;46.35;101294.72;5079135;28;1258;-56
2023/12/31 09:18:50;;;;;;;;;;;;;;;17.54;43.82;101297.44;5078430;28;1114;-57
2023/12/31 09:21:16;;;;;;;;;;;;;;;16.59;45.89;101302.69;5065492;28;1980;-57
2023/12/31 09:23:41;;;;;;;;;;;;;;;16.12;47.08;101287.03;5078299;28;1147;-57
2023/12/31 09:26:07;;;;;;;;;;;;;;;15.93;47.23;101292.59;5076294;28;2534;-56
2023/12/31 09:28:33;;;;;;;;;;;;;;;15.75;48.09;101287.44;5077824;28;1238;-56
2023/12/31 09:30:58;;;;;;;;;;;;;;;15.88;47.63;101284.06;5077750;28;1104;-58
2023/12/31 09:33:24;;;;;;;;;;;;;;;17.25;44.82;101279.84;5072032;28;1136;-56
2023/12/31 09:35:49;;;;;;;;;;;;;;;16.59;45.77;101275.25;5078369;28;1277;-56
2023/12/31 09:38:15;;;;;;;;;;;;;;;16.05;47.01;101276.88;5078325;28;1194;-55
2023/12/31 09:40:41;;;;;;;;;;;;;;;15.86;47.45;101273.53;5078564;28;1337;-56
2023/12/31 09:43:07;;;;;;;;;;;;;;;15.79;48.20;101273.06;5078431;28;1901;-56
2023/12/31 09:45:32;;;;;;;;;;;;;;;17.20;44.79;101274.03;5077937;28;1016;-56
2023/12/31 09:47:59;;;;;;;;;;;;;;;16.70;45.71;101270.09;5060157;28;1377;-55
2023/12/31 09:50:25;;;;;;;;;;;;;;;16.12;47.06;101275.53;5078511;28;1353;-54
2023/12/31 09:52:51;;;;;;;;;;;;;;;15.87;47.77;101269.06;5077645;28;1306;-56
2023/12/31 09:55:16;;;;;;;;;;;;;;;15.76;47.75;101267.09;5077294;28;2525;-55
2023/12/31 09:57:42;;;;;;;;;;;;;;;16.83;45.64;101262.19;5065289;28;1234;-57
2023/12/31 10:00:08;;;;;;;;;;;;;;;17.17;44.72;101259.13;5078381;28;1308;-56
2023/12/31 10:02:37;;;;;;;;;;;;;;;16.36;46.41;101264.31;5064444;28;1985;-55
2023/12/31 10:05:03;;;;;;;;;;;;;;;16.03;47.39;101263.72;5077605;28;1081;-55
2023/12/31 10:07:29;;;;;;;;;;;;;;;15.81;48.01;101258.84;5073706;28;1139;-55
2023/12/31 10:09:55;;;;;;;;;;;;;;;15.77;48.33;101263.47;5063701;28;941;-53
2023/12/31 10:12:20;;;;;;;;;;;;;;;17.27;44.64;101258.50;5062456;28;1040;-55
2023/12/31 10:14:46;;;;;;;;;;;;;;;16.65;45.66;101254.47;5057719;28;1345;-55
2023/12/31 10:17:11;;;;;;;;;;;;;;;16.19;47.06;101252.13;5057854;28;1122;-55
2023/12/31 10:19:38;;;;;;;;;;;;;;;15.85;47.67;101241.81;5060104;28;1124;-50
2023/12/31 10:22:07;;;;;;;;;;;;;;;15.79;47.79;101248.34;5060319;28;1897;-52
2023/12/31 10:24:33;;;;;;;;;;;;;;;16.91;45.73;101247.53;5057504;28;2486;-49
2023/12/31 10:27:03;;;;;;;;;;;;;;;17.28;44.49;101245.09;5066988;28;1044;-50
2023/12/31 10:29:28;;;;;;;;;;;;;;;16.37;46.58;101242.13;5074167;28;1028;-50
2023/12/31 10:31:54;;;;;;;;;;;;;;;15.97;47.55;101245.47;5067416;28;1435;-54
2023/12/31 10:34:20;;;;;;;;;;;;;;;15.83;47.91;101239.22;5063803;28;952;-52
2023/12/31 10:36:46;;;;;;;;;;;;;;;15.67;48.46;101237.53;5076832;28;1046;-51
2023/12/31 10:39:27;;;;;;;;;;;;;;;16.46;46.80;101235.38;5068435;28;1038;-53
2023/12/31 10:41:56;;;;;;;;;;;;;;;17.21;44.46;101241.16;5061861;28;1957;-50
2023/12/31 10:44:22;;;;;;;;;;;;;;;16.29;46.78;101234.66;5065795;28;1012;-54
2023/12/31 10:46:47;;;;;;;;;;;;;;;16.00;47.24;101230.25;5057737;28;1130;-53
2023/12/31 10:49:13;;;;;;;;;;;;;;;15.80;47.97;101231.47;5059442;28;1028;-53
2023/12/31 10:51:42;;;;;;;;;;;;;;;16.19;47.19;101221.13;5045797;28;1140;-51
2023/12/31 10:54:08;;;;;;;;;;;;;;;17.47;44.11;101220.75;5058220;28;2492;-50
2023/12/31 10:56:33;;;;;;;;;;;;;;;16.55;46.21;101213.53;5057767;28;1100;-53
2023/12/31 10:58:59;;;;;;;;;;;;;;;16.16;47.13;101216.03;5047677;28;1216;-51
2023/12/31 11:01:25;;;;;;;;;;;;;;;15.84;47.76;101210.91;5057181;28;1981;-51
2023/12/31 11:03:56;;;;;;;;;;;;;;;15.66;48.41;101211.09;5076864;28;1106;-51
2023/12/31 11:06:21;;;;;;;;;;;;;;;16.05;47.63;101213.19;5063489;28;1266;-49
2023/12/31 11:08:47;;;;;;;;;;;;;;;17.30;44.74;101202.47;5067422;28;1039;-53
2023/12/31 11:11:14;;;;;;;;;;;;;;;16.49;46.18;101201.50;5070352;28;1087;-48
2023/12/31 11:13:40;;;;;;;;;;;;;;;15.96;47.37;101199.53;5069412;28;1035;-52
2023/12/31 11:16:06;;;;;;;;;;;;;;;15.76;48.12;101196.34;5059373;28;1238;-49
2023/12/31 11:18:55;;;;;;;;;;;;;;;15.62;48.27;101201.63;5058201;28;1119;-52
2023/12/31 11:21:34;;;;;;;;;;;;;;;16.87;45.80;101204.38;5044388;28;1992;-52
2023/12/31 11:24:08;;;;;;;;;;;;;;;16.70;45.60;101194.88;5075028;28;1004;-50
2023/12/31 11:26:34;;;;;;;;;;;;;;;16.04;47.37;101196.41;5048852;28;1122;-50
2023/12/31 11:29:00;;;;;;;;;;;;;;;15.79;47.94;101197.94;5076067;28;1086;-51
2023/12/31 11:31:26;;;;;;;;;;;;;;;15.63;48.36;101190.91;5076891;28;1083;-52
2023/12/31 11:33:51;;;;;;;;;;;;;;;16.81;45.69;101187.06;5054525;28;1167;-52
2023/12/31 11:36:17;;;;;;;;;;;;;;;17.01;44.84;101185.72;5056579;28;1301;-50
2023/12/31 11:38:56;;;;;;;;;;;;;;;16.34;46.49;101186.56;5042751;28;1139;-49
2023/12/31 11:41:39;;;;;;;;;;;;;;;15.88;47.67;101188.56;5056162;28;1969;-50
2023/12/31 11:44:04;;;;;;;;;;;;;;;15.69;48.07;101178.22;5056700;28;1363;-53
2023/12/31 11:46:31;;;;;;;;;;;;;;;16.27;47.26;101183.47;5055654;28;1369;-49
2023/12/31 11:48:57;;;;;;;;;;;;;;;17.42;44.13;101185.63;5056159;28;1265;-52
2023/12/31 11:51:23;;;;;;;;;;;;;;;16.51;45.94;101178.38;5042955;28;1361;-52
2023/12/31 11:53:49;;;;;;;;;;;;;;;16.12;47.18;101174.69;5055491;28;1257;-51
2023/12/31 11:56:15;;;;;;;;;;;;;;;15.82;47.65;101175.66;5054107;28;2695;-53
2023/12/31 11:58:43;;;;;;;;;;;;;;;15.71;48.12;101171.91;5054483;28;1165;-51
2023/12/31 12:01:09;;;;;;;;;;;;;;;17.19;44.80;101188.09;5040836;28;1903;-50
2023/12/31 12:03:34;;;;;;;;;;;;;;;16.72;45.53;101175.22;5055865;28;1103;-50
2023/12/31 12:06:00;;;;;;;;;;;;;;;16.18;46.98;101182.28;5050689;28;1074;-53
2023/12/31 12:08:26;;;;;;;;;;;;;;;15.87;47.87;101176.22;5035628;28;1167;-53
2023/12/31 12:10:52;;;;;;;;;;;;;;;15.65;48.36;101170.47;5052594;28;1059;-51
2023/12/31 12:13:17;;;;;;;;;;;;;;;15.52;48.79;101177.47;5055311;28;1051;-51
2023/12/31 12:15:43;;;;;;;;;;;;;;;15.94;47.93;101168.72;5055321;28;1110;-55
2023/12/31 12:18:26;;;;;;;;;;;;;;;17.35;44.55;101173.75;5055825;28;1015;-53
2023/12/31 12:20:52;;;;;;;;;;;;;;;16.58;46.12;101170.00;5055452;28;1054;-52
2023/12/31 12:23:18;;;;;;;;;;;;;;;16.03;47.13;101163.72;5036421;28;1906;-53
2023/12/31 12:25:44;;;;;;;;;;;;;;;15.83;48.08;101164.09;5048999;28;2733;-49
2023/12/31 12:28:10;;;;;;;;;;;;;;;15.64;48.38;101168.78;5054927;28;1070;-50
2023/12/31 12:30:38;;;;;;;;;;;;;;;15.69;48.57;101159.66;5055452;28;1146;-54
2023/12/31 12:33:04;;;;;;;;;;;;;;;17.19;44.92;101161.50;5064677;28;1132;-48
2023/12/31 12:35:31;;;;;;;;;;;;;;;16.96;45.00;101163.03;5067066;28;1143;-51
2023/12/31 12:37:57;;;;;;;;;;;;;;;16.25;46.53;101159.66;5065174;28;1190;-49
2023/12/31 12:40:22;;;;;;;;;;;;;;;15.94;47.38;101166.06;5059932;28;1001;-52
2023/12/31 12:42:48;;;;;;;;;;;;;;;15.65;48.13;101159.00;5071357;28;1910;-48